createdAt,value
2022-10-30T00:02:18.945Z,12.27
2022-10-30T00:04:47.624Z,13.20
2022-10-30T00:07:16.131Z,12.97
2022-10-30T00:09:46.672Z,14.10
2022-10-30T00:12:19.062Z,13.37
2022-10-30T00:14:47.789Z,14.50
2022-10-30T00:17:24.177Z,13.97
2022-10-30T00:19:54.253Z,13.67
2022-10-30T00:22:23.106Z,13.70
2022-10-30T00:24:51.717Z,13.73
2022-10-30T00:27:23.472Z,13.60
2022-10-30T00:29:52.468Z,14.03
2022-10-30T00:32:21.011Z,14.37
2022-10-30T00:34:49.689Z,14.03
2022-10-30T00:37:20.674Z,14.20
2022-10-30T00:39:49.284Z,14.03
2022-10-30T00:42:19.411Z,14.83
2022-10-30T00:44:53.965Z,16.00
2022-10-30T00:47:36.924Z,14.70
2022-10-30T00:50:10.512Z,15.80
2022-10-30T00:52:44.232Z,16.03
2022-10-30T00:55:32.126Z,15.13
2022-10-30T00:58:03.834Z,16.33
2022-10-30T01:00:32.604Z,17.23
2022-10-30T01:03:02.116Z,17.00
2022-10-30T01:05:34.046Z,16.03
2022-10-30T01:08:09.476Z,16.80
2022-10-30T01:10:38.726Z,15.40
2022-10-30T01:13:08.499Z,16.67
2022-10-30T01:15:43.139Z,17.63
2022-10-30T01:18:20.748Z,17.43
2022-10-30T01:21:25.717Z,17.50
2022-10-30T01:24:15.357Z,18.37
2022-10-30T01:26:49.652Z,18.20
2022-10-30T01:29:33.399Z,17.67
2022-10-30T01:32:30.586Z,17.63
2022-10-30T01:35:14.241Z,18.23
2022-10-30T01:37:49.104Z,17.97
2022-10-30T01:40:20.271Z,18.10
2022-10-30T01:42:57.523Z,18.60
2022-10-30T01:45:43.894Z,17.60
2022-10-30T01:48:42.811Z,17.87
2022-10-30T01:51:23.250Z,17.80
2022-10-30T01:54:14.649Z,17.77
2022-10-30T01:56:52.292Z,17.77
2022-10-30T01:59:39.275Z,19.10
2022-10-30T02:02:10.615Z,17.60
2022-10-30T02:04:42.625Z,18.17
2022-10-30T02:07:12.742Z,17.57
2022-10-30T02:09:44.776Z,17.70
2022-10-30T02:12:16.482Z,18.00
2022-10-30T02:14:50.927Z,17.93
2022-10-30T02:17:20.862Z,18.87
2022-10-30T02:19:49.579Z,19.10
2022-10-30T02:22:18.427Z,18.40
2022-10-30T02:24:48.040Z,19.37
2022-10-30T02:27:16.701Z,18.20
2022-10-30T02:29:45.340Z,18.33
2022-10-30T02:32:13.966Z,19.10
2022-10-30T02:34:45.823Z,19.30
2022-10-30T02:37:14.361Z,19.27
2022-10-30T02:39:44.557Z,19.97
2022-10-30T02:42:14.688Z,20.67
2022-10-30T02:44:43.243Z,20.17
2022-10-30T02:47:11.892Z,19.87
2022-10-30T02:49:42.243Z,20.47
2022-10-30T02:52:10.883Z,20.03
2022-10-30T02:54:39.611Z,20.10
2022-10-30T02:57:08.182Z,19.30
2022-10-30T02:59:39.548Z,19.87
2022-10-30T03:02:11.412Z,19.00
2022-10-30T03:04:40.135Z,19.87
2022-10-30T03:07:08.836Z,19.40
2022-10-30T03:09:41.561Z,19.67
2022-10-30T03:12:10.162Z,19.50
2022-10-30T03:14:38.689Z,20.90
2022-10-30T03:17:08.497Z,20.57
2022-10-30T03:19:44.343Z,20.77
2022-10-30T03:22:14.911Z,21.73
2022-10-30T03:24:46.410Z,21.63
2022-10-30T03:27:15.013Z,20.30
2022-10-30T03:29:44.713Z,20.67
2022-10-30T03:32:13.468Z,19.70
2022-10-30T03:34:46.071Z,19.50
2022-10-30T03:37:17.506Z,19.50
2022-10-30T03:39:56.090Z,18.87
2022-10-30T03:42:24.692Z,19.60
2022-10-30T03:44:53.329Z,18.83
2022-10-30T03:47:23.344Z,17.63
2022-10-30T03:49:51.866Z,18.13
2022-10-30T03:52:24.606Z,18.70
2022-10-30T03:54:53.166Z,18.30
2022-10-30T03:57:21.751Z,17.60
2022-10-30T03:59:51.891Z,19.77
2022-10-30T04:02:22.067Z,20.00
2022-10-30T04:04:51.015Z,17.83
2022-10-30T04:07:19.511Z,17.37
2022-10-30T04:09:48.205Z,17.50
2022-10-30T04:12:16.781Z,17.07
2022-10-30T04:14:45.287Z,19.23
2022-10-30T04:17:13.868Z,23.50
2022-10-30T04:19:44.807Z,25.40
2022-10-30T04:22:13.311Z,25.33
2022-10-30T04:24:41.942Z,26.80
2022-10-30T04:27:10.529Z,26.60
2022-10-30T04:29:39.101Z,30.90
2022-10-30T04:32:07.790Z,29.07
2022-10-30T04:34:36.796Z,27.77
2022-10-30T04:37:05.395Z,28.60
2022-10-30T04:39:34.458Z,28.23
2022-10-30T04:42:03.149Z,27.50
2022-10-30T04:44:31.696Z,25.37
2022-10-30T04:47:00.243Z,25.60
2022-10-30T04:49:28.898Z,26.10
2022-10-30T04:51:57.567Z,24.23
2022-10-30T04:54:29.210Z,22.97
2022-10-30T04:56:57.970Z,23.37
2022-10-30T04:59:26.711Z,21.40
2022-10-30T05:01:55.611Z,22.17
2022-10-30T05:04:24.370Z,21.13
2022-10-30T05:06:53.107Z,20.07
2022-10-30T05:09:21.691Z,20.53
2022-10-30T05:11:50.310Z,19.67
2022-10-30T05:14:18.900Z,20.27
2022-10-30T05:16:47.609Z,21.13
2022-10-30T05:19:16.168Z,21.30
2022-10-30T05:21:44.767Z,20.40
2022-10-30T05:24:16.215Z,20.27
2022-10-30T05:26:45.427Z,20.37
2022-10-30T05:29:17.617Z,20.00
2022-10-30T05:31:49.458Z,20.17
2022-10-30T05:34:18.032Z,19.80
2022-10-30T05:36:48.190Z,21.13
2022-10-30T05:39:16.923Z,19.07
2022-10-30T05:41:45.545Z,20.10
2022-10-30T05:44:28.865Z,19.97
2022-10-30T05:46:47.005Z,20.33
2022-10-30T05:49:15.781Z,19.17
2022-10-30T05:51:44.559Z,20.03
2022-10-30T05:54:14.708Z,20.57
2022-10-30T05:56:43.364Z,19.77
2022-10-30T05:59:11.943Z,20.13
2022-10-30T06:01:40.562Z,19.40
2022-10-30T06:04:09.962Z,20.17
2022-10-30T06:06:41.327Z,23.30
2022-10-30T06:09:12.599Z,24.53
2022-10-30T06:11:41.167Z,24.73
2022-10-30T06:14:09.699Z,25.93
2022-10-30T06:16:39.962Z,26.53
2022-10-30T06:19:10.024Z,26.13
2022-10-30T06:21:40.248Z,26.07
2022-10-30T06:24:09.106Z,25.83
2022-10-30T06:26:37.714Z,25.80
2022-10-30T06:29:06.420Z,25.07
2022-10-30T06:31:35.107Z,25.13
2022-10-30T06:34:05.743Z,23.80
2022-10-30T06:36:34.364Z,23.37
2022-10-30T06:39:03.125Z,22.07
2022-10-30T06:41:31.771Z,22.23
2022-10-30T06:44:00.493Z,22.10
2022-10-30T06:46:33.624Z,24.40
2022-10-30T06:49:02.872Z,22.37
2022-10-30T06:51:31.745Z,22.27
2022-10-30T06:54:00.432Z,21.80
2022-10-30T06:56:29.072Z,23.30
2022-10-30T06:58:57.696Z,24.00
2022-10-30T07:01:26.423Z,23.63
2022-10-30T07:03:55.058Z,24.07
2022-10-30T07:06:23.690Z,23.40
2022-10-30T07:09:33.645Z,24.10
2022-10-30T07:12:06.935Z,23.00
2022-10-30T07:14:38.873Z,22.33
2022-10-30T07:17:09.118Z,23.60
2022-10-30T07:19:37.803Z,23.40
2022-10-30T07:22:08.109Z,23.45
2022-10-30T07:28:16.969Z,22.37
2022-10-30T07:30:45.644Z,22.62
2022-10-30T07:33:14.752Z,23.30
2022-10-30T07:35:49.155Z,23.33
2022-10-30T07:38:20.932Z,23.25
2022-10-30T07:40:56.108Z,24.70
2022-10-30T07:43:27.327Z,23.22
2022-10-30T07:45:56.973Z,22.32
2022-10-30T07:48:27.061Z,22.93
2022-10-30T07:50:57.486Z,22.27
2022-10-30T07:57:00.466Z,22.58
2022-10-30T07:59:29.167Z,21.13
2022-10-30T08:01:57.876Z,20.70
2022-10-30T08:04:26.490Z,20.15
2022-10-30T08:06:55.057Z,18.98
2022-10-30T08:09:27.779Z,19.20
2022-10-30T08:11:56.368Z,19.27
2022-10-30T08:14:25.024Z,36.33
2022-10-30T08:16:56.546Z,19.17
2022-10-30T08:19:25.418Z,22.87
2022-10-30T08:21:59.893Z,22.48
2022-10-30T08:24:27.670Z,20.23
2022-10-30T08:29:51.999Z,19.62
2022-10-30T08:32:20.512Z,38.95
2022-10-30T08:34:49.050Z,21.33
2022-10-30T08:37:18.363Z,19.10
2022-10-30T08:39:47.006Z,17.02
2022-10-30T08:42:15.692Z,17.57
2022-10-30T08:44:45.933Z,18.30
2022-10-30T08:47:17.572Z,16.23
2022-10-30T08:49:46.259Z,16.73
2022-10-30T08:52:19.316Z,17.02
2022-10-30T08:55:00.718Z,17.85
2022-10-30T08:57:29.376Z,15.93
2022-10-30T09:00:00.713Z,15.72
2022-10-30T09:02:31.381Z,16.82
2022-10-30T09:05:00.339Z,16.15
2022-10-30T09:07:33.344Z,17.40
2022-10-30T09:10:02.240Z,16.55
2022-10-30T09:12:34.176Z,14.63
2022-10-30T09:15:03.427Z,14.83
2022-10-30T09:17:32.249Z,18.42
2022-10-30T09:20:02.392Z,14.78
2022-10-30T09:22:34.362Z,16.27
2022-10-30T09:25:04.536Z,15.93
2022-10-30T09:27:36.362Z,16.27
2022-10-30T09:30:10.803Z,15.05
2022-10-30T09:32:43.383Z,15.93
2022-10-30T09:35:13.639Z,15.78
2022-10-30T09:37:46.072Z,20.08
2022-10-30T09:40:41.171Z,15.93
2022-10-30T09:43:27.631Z,15.53
2022-10-30T09:46:29.397Z,16.73
2022-10-30T09:49:06.903Z,15.50
2022-10-30T09:51:44.276Z,14.80
2022-10-30T09:54:24.168Z,14.83
2022-10-30T09:57:07.875Z,14.45
2022-10-30T09:59:42.056Z,13.58
2022-10-30T10:02:37.750Z,13.88
2022-10-30T10:05:18.260Z,13.48
2022-10-30T10:07:52.790Z,12.75
2022-10-30T10:10:48.651Z,12.30
2022-10-30T10:13:20.427Z,18.27
2022-10-30T10:15:53.567Z,10.60
2022-10-30T10:21:04.628Z,10.28
2022-10-30T10:23:49.890Z,10.70
2022-10-30T10:26:30.846Z,10.08
2022-10-30T10:29:10.922Z,9.83
2022-10-30T10:31:49.779Z,9.43
2022-10-30T10:34:37.791Z,10.50
2022-10-30T10:37:35.056Z,7.78
2022-10-30T10:40:27.189Z,7.03
2022-10-30T10:43:32.940Z,7.10
2022-10-30T10:46:34.132Z,8.45
2022-10-30T10:49:25.123Z,7.95
2022-10-30T10:52:02.392Z,7.55
2022-10-30T10:54:48.240Z,7.60
2022-10-30T10:57:47.010Z,6.10
2022-10-30T11:00:45.544Z,6.17
2022-10-30T11:03:25.505Z,6.45
2022-10-30T11:06:17.859Z,6.62
2022-10-30T11:08:46.855Z,5.87
2022-10-30T11:11:16.217Z,6.47
2022-10-30T11:13:47.984Z,6.65
2022-10-30T11:16:30.908Z,5.72
2022-10-30T11:19:05.484Z,5.83
2022-10-30T11:21:45.879Z,4.90
2022-10-30T11:24:34.842Z,5.33
2022-10-30T11:27:40.567Z,5.08
2022-10-30T11:30:39.458Z,7.95
2022-10-30T11:33:19.864Z,48.40
2022-10-30T11:35:50.010Z,19.48
2022-10-30T11:38:21.370Z,19.12
2022-10-30T11:40:54.614Z,6.12
2022-10-30T11:43:26.220Z,5.25
2022-10-30T11:45:56.065Z,5.15
2022-10-30T11:48:30.414Z,6.65
2022-10-30T11:51:08.856Z,5.22
2022-10-30T11:53:48.225Z,10.38
2022-10-30T11:56:33.067Z,9.90
2022-10-30T11:59:06.053Z,4.70
2022-10-30T12:01:39.468Z,4.15
2022-10-30T12:04:27.720Z,4.67
2022-10-30T12:07:11.162Z,7.37
2022-10-30T12:09:48.065Z,3.90
2022-10-30T12:15:28.364Z,7.97
2022-10-30T12:18:02.815Z,4.30
2022-10-30T12:20:34.612Z,8.55
2022-10-30T12:23:20.104Z,4.45
2022-10-30T12:26:13.912Z,4.67
2022-10-30T12:28:45.786Z,3.37
2022-10-30T12:31:21.963Z,3.80
2022-10-30T12:33:56.282Z,7.97
2022-10-30T12:36:28.336Z,8.90
2022-10-30T12:39:03.722Z,17.82
2022-10-30T12:41:50.766Z,4.33
2022-10-30T12:44:31.682Z,3.98
2022-10-30T12:50:57.452Z,5.30
2022-10-30T12:53:51.558Z,6.83
2022-10-30T12:56:32.470Z,4.62
2022-10-30T12:59:35.041Z,2.90
2022-10-30T13:02:31.848Z,3.25
2022-10-30T13:05:09.609Z,2.42
2022-10-30T13:07:50.378Z,2.12
2022-10-30T13:10:33.223Z,2.83
2022-10-30T13:13:05.222Z,3.02
2022-10-30T13:15:59.535Z,2.30
2022-10-30T13:18:34.477Z,2.87
2022-10-30T13:21:14.176Z,2.20
2022-10-30T13:24:06.409Z,2.47
2022-10-30T13:30:09.193Z,2.92
2022-10-30T13:33:03.017Z,2.12
2022-10-30T13:39:17.269Z,1.82
2022-10-30T13:42:11.359Z,2.37
2022-10-30T13:44:56.872Z,2.20
2022-10-30T13:50:44.368Z,2.27
2022-10-30T14:03:56.521Z,2.27
2022-10-30T14:06:31.071Z,2.10
2022-10-30T14:13:17.497Z,2.55
2022-10-30T14:15:54.427Z,2.95
2022-10-30T14:18:35.204Z,2.45
2022-10-30T14:21:14.081Z,2.55
2022-10-30T14:24:01.382Z,2.85
2022-10-30T14:27:22.219Z,2.47
2022-10-30T14:30:00.474Z,2.90
2022-10-30T14:35:44.818Z,3.02
2022-10-30T14:39:09.108Z,3.15
2022-10-30T14:42:38.104Z,3.67
2022-10-30T15:14:56.834Z,4.17
2022-10-30T15:20:40.815Z,4.83
2022-10-30T15:39:44.509Z,4.03
2022-10-30T15:42:13.953Z,4.45
2022-10-30T15:44:45.577Z,4.10
2022-10-30T15:47:21.088Z,4.53
2022-10-30T15:49:52.615Z,4.60
2022-10-30T15:52:27.193Z,5.30
2022-10-30T15:55:10.727Z,7.08
2022-10-30T16:02:54.084Z,6.22
2022-10-30T16:05:24.010Z,8.40
2022-10-30T16:07:55.565Z,5.37
2022-10-30T16:10:25.576Z,5.40
2022-10-30T16:12:56.547Z,5.17
2022-10-30T16:15:34.502Z,4.50
2022-10-30T16:18:25.717Z,4.40
2022-10-30T16:20:57.375Z,4.80
2022-10-30T16:23:26.056Z,5.62
2022-10-30T16:25:59.378Z,4.72
2022-10-30T16:28:36.291Z,4.92
2022-10-30T16:31:11.766Z,5.35
2022-10-30T16:33:42.831Z,5.40
2022-10-30T16:36:18.121Z,5.85
2022-10-30T16:38:50.047Z,5.67
2022-10-30T16:41:26.718Z,6.37
2022-10-30T16:44:12.092Z,5.83
2022-10-30T16:46:50.681Z,5.78
2022-10-30T16:49:28.268Z,5.58
2022-10-30T16:52:03.176Z,6.05
2022-10-30T16:54:37.572Z,6.37
2022-10-30T16:57:28.404Z,6.83
2022-10-30T16:59:58.634Z,5.78
2022-10-30T17:02:39.221Z,5.87
2022-10-30T17:05:15.465Z,11.63
2022-10-30T17:07:58.823Z,6.45
2022-10-30T17:10:42.315Z,6.10
2022-10-30T17:13:41.115Z,7.47
2022-10-30T17:16:34.086Z,6.47
2022-10-30T17:19:22.201Z,6.50
2022-10-30T17:21:56.784Z,5.85
2022-10-30T17:24:28.630Z,6.15
2022-10-30T17:27:03.089Z,6.03
2022-10-30T17:29:40.437Z,6.60
2022-10-30T17:32:20.646Z,6.85
2022-10-30T17:35:00.869Z,6.35
2022-10-30T17:37:30.154Z,5.67
2022-10-30T17:40:01.508Z,5.87
2022-10-30T17:42:30.200Z,5.80
2022-10-30T17:44:59.352Z,6.05
2022-10-30T17:47:29.963Z,5.80
2022-10-30T17:52:55.598Z,6.62
2022-10-30T17:55:35.366Z,6.28
2022-10-30T17:58:05.806Z,6.60
2022-10-30T18:00:36.021Z,9.98
2022-10-30T18:03:04.690Z,6.47
2022-10-30T18:05:36.032Z,6.62
2022-10-30T18:08:04.717Z,6.97
2022-10-30T18:10:33.319Z,5.75
2022-10-30T18:13:02.679Z,5.67
2022-10-30T18:15:39.097Z,5.70
2022-10-30T18:18:09.426Z,6.65
2022-10-30T18:20:38.860Z,5.47
2022-10-30T18:25:56.630Z,6.05
2022-10-30T18:28:44.583Z,7.10
2022-10-30T18:31:22.711Z,5.42
2022-10-30T18:33:51.445Z,5.20
2022-10-30T18:36:30.723Z,6.22
2022-10-30T18:38:59.497Z,5.85
2022-10-30T18:41:53.992Z,5.78
2022-10-30T18:44:22.656Z,5.92
2022-10-30T18:46:51.362Z,6.47
2022-10-30T18:49:21.693Z,5.25
2022-10-30T18:51:51.070Z,6.53
2022-10-30T18:54:21.088Z,5.70
2022-10-30T18:56:51.143Z,5.97
2022-10-30T18:59:19.696Z,5.92
2022-10-30T19:01:48.545Z,5.30
2022-10-30T19:04:22.197Z,6.30
2022-10-30T19:06:49.818Z,6.20
2022-10-30T19:09:21.510Z,5.97
2022-10-30T19:12:04.263Z,5.95
2022-10-30T19:14:36.151Z,6.80
2022-10-30T19:17:11.154Z,6.78
2022-10-30T19:19:39.849Z,5.28
2022-10-30T19:22:10.356Z,4.53
2022-10-30T19:24:38.947Z,4.47
2022-10-30T19:27:07.540Z,4.72
2022-10-30T19:29:36.202Z,4.80
2022-10-30T19:32:04.797Z,4.85
2022-10-30T19:34:35.042Z,4.75
2022-10-30T19:37:06.664Z,4.55
2022-10-30T19:39:35.376Z,4.47
2022-10-30T19:42:06.192Z,5.20
2022-10-30T19:44:34.777Z,4.95
2022-10-30T19:47:04.977Z,5.37
2022-10-30T19:49:33.608Z,4.28
2022-10-30T19:52:02.262Z,4.60
2022-10-30T19:54:32.137Z,4.87
2022-10-30T19:57:00.717Z,5.47
2022-10-30T19:59:29.411Z,5.17
2022-10-30T20:01:58.232Z,4.90
2022-10-30T20:04:32.968Z,5.33
2022-10-30T20:07:07.555Z,4.85
2022-10-30T20:09:36.430Z,5.05
2022-10-30T20:12:06.902Z,4.10
2022-10-30T20:14:39.917Z,4.95
2022-10-30T20:17:10.387Z,5.03
2022-10-30T20:19:39.200Z,4.92
2022-10-30T20:22:07.993Z,4.80
2022-10-30T20:24:36.680Z,5.28
2022-10-30T20:27:05.552Z,4.25
2022-10-30T20:29:38.962Z,4.60
2022-10-30T20:32:09.065Z,4.00
2022-10-30T20:34:37.655Z,4.60
2022-10-30T20:37:09.074Z,4.75
2022-10-30T20:39:37.785Z,4.62
2022-10-30T20:42:16.794Z,3.70
2022-10-30T20:44:48.446Z,4.10
2022-10-30T20:47:18.999Z,4.45
2022-10-30T20:49:49.283Z,4.08
2022-10-30T20:52:22.387Z,4.40
2022-10-30T20:58:15.461Z,3.98
2022-10-30T21:00:44.462Z,4.10
2022-10-30T21:03:15.810Z,4.72
2022-10-30T21:05:48.781Z,3.85
2022-10-30T21:08:19.031Z,3.62
2022-10-30T21:10:49.921Z,3.62
2022-10-30T21:13:24.470Z,3.90
2022-10-30T21:15:53.488Z,3.50
2022-10-30T21:18:24.041Z,3.67
2022-10-30T21:20:54.711Z,4.03
2022-10-30T21:23:26.194Z,4.03
2022-10-30T21:26:07.307Z,3.75
2022-10-30T21:28:37.639Z,4.65
2022-10-30T21:31:09.043Z,4.15
2022-10-30T21:33:49.405Z,4.42
2022-10-30T21:36:21.031Z,4.25
2022-10-30T21:38:58.861Z,4.40
2022-10-30T21:41:39.091Z,4.70
2022-10-30T21:44:15.473Z,3.62
2022-10-30T21:46:44.546Z,4.12
2022-10-30T21:49:16.642Z,3.30
2022-10-30T21:51:49.393Z,3.50
2022-10-30T21:54:19.861Z,3.35
2022-10-30T21:56:50.397Z,3.80
2022-10-30T21:59:19.401Z,3.35
2022-10-30T22:01:48.397Z,3.40
2022-10-30T22:04:20.253Z,3.72
2022-10-30T22:06:51.970Z,5.30
2022-10-30T22:09:20.645Z,3.15
2022-10-30T22:11:52.326Z,3.92
2022-10-30T22:14:22.043Z,4.12
2022-10-30T22:16:52.192Z,4.08
2022-10-30T22:19:21.304Z,3.45
2022-10-30T22:21:50.317Z,3.50
2022-10-30T22:24:19.179Z,3.60
2022-10-30T22:26:47.930Z,3.55
2022-10-30T22:29:16.645Z,3.80
2022-10-30T22:31:53.168Z,3.70
2022-10-30T22:34:21.666Z,4.33
2022-10-30T22:36:51.865Z,3.47
2022-10-30T22:39:20.449Z,3.80
2022-10-30T22:41:50.578Z,3.98
2022-10-30T22:44:20.795Z,4.33
2022-10-30T22:46:50.929Z,3.92
2022-10-30T22:49:23.021Z,3.60
2022-10-30T22:51:51.611Z,3.50
2022-10-30T22:54:21.913Z,3.50
2022-10-30T22:56:50.682Z,3.50
2022-10-30T22:59:19.410Z,3.60
2022-10-30T23:01:47.984Z,3.90
2022-10-30T23:04:18.459Z,3.95
2022-10-30T23:06:49.808Z,3.30
2022-10-30T23:09:22.431Z,3.42
2022-10-30T23:12:01.863Z,3.62
2022-10-30T23:14:36.133Z,4.05
2022-10-30T23:17:04.943Z,3.45
2022-10-30T23:19:35.526Z,3.67
2022-10-30T23:22:04.233Z,4.00
2022-10-30T23:24:34.121Z,3.87
2022-10-30T23:27:04.493Z,3.85
2022-10-30T23:29:33.356Z,4.50
2022-10-30T23:32:08.782Z,4.12
2022-10-30T23:34:40.664Z,3.55
2022-10-30T23:37:09.612Z,3.87
2022-10-30T23:39:38.602Z,3.67
2022-10-30T23:42:07.535Z,3.60
2022-10-30T23:44:37.517Z,3.67
2022-10-30T23:47:06.510Z,3.60
2022-10-30T23:49:41.159Z,3.95
2022-10-30T23:52:11.710Z,4.70
2022-10-30T23:54:42.220Z,5.35
2022-10-30T23:57:14.201Z,5.75
2022-10-30T23:59:43.458Z,4.85
